createdAt,value
2017-08-12T00:01:23.325Z,12.10
2017-08-12T00:03:50.905Z,12.00
2017-08-12T00:06:18.447Z,11.90
2017-08-12T00:08:46.010Z,11.90
2017-08-12T00:11:13.565Z,11.90
2017-08-12T00:13:41.121Z,12.00
2017-08-12T00:16:11.296Z,12.20
2017-08-12T00:18:38.842Z,12.40
2017-08-12T00:21:06.449Z,12.50
2017-08-12T00:23:34.833Z,12.50
2017-08-12T00:26:03.193Z,12.50
2017-08-12T00:28:31.505Z,12.50
2017-08-12T00:30:59.065Z,12.50
2017-08-12T00:33:27.562Z,12.50
2017-08-12T00:35:55.170Z,12.50
2017-08-12T00:38:22.729Z,12.50
2017-08-12T00:40:50.350Z,12.50
2017-08-12T00:43:17.892Z,12.60
2017-08-12T00:45:46.208Z,12.60
2017-08-12T00:48:13.770Z,12.60
2017-08-12T00:50:41.336Z,12.70
2017-08-12T00:53:09.011Z,12.70
2017-08-12T00:55:36.539Z,12.80
2017-08-12T00:58:04.113Z,12.80
2017-08-12T01:00:31.662Z,12.80
2017-08-12T01:03:00.042Z,12.80
2017-08-12T01:05:27.586Z,12.80
2017-08-12T01:07:55.145Z,12.80
2017-08-12T01:10:22.705Z,12.80
2017-08-12T01:12:50.287Z,12.80
2017-08-12T01:15:17.844Z,12.90
2017-08-12T01:17:45.390Z,12.90
2017-08-12T01:20:12.977Z,12.80
2017-08-12T01:22:40.541Z,12.70
2017-08-12T01:25:08.103Z,12.70
2017-08-12T01:27:35.632Z,12.60
2017-08-12T01:30:03.172Z,12.60
2017-08-12T01:32:30.715Z,12.50
2017-08-12T01:34:58.278Z,12.30
2017-08-12T01:37:25.831Z,12.30
2017-08-12T01:39:53.393Z,12.20
2017-08-12T01:42:20.948Z,12.10
2017-08-12T01:44:48.488Z,12.10
2017-08-12T01:47:16.048Z,12.00
2017-08-12T01:49:43.580Z,11.90
2017-08-12T01:52:11.904Z,11.70
2017-08-12T01:54:40.037Z,11.70
2017-08-12T01:57:08.394Z,11.50
2017-08-12T01:59:37.026Z,11.40
2017-08-12T02:02:04.630Z,11.40
2017-08-12T02:04:32.254Z,11.30
2017-08-12T02:07:01.494Z,11.40
2017-08-12T02:09:29.126Z,11.40
2017-08-12T02:11:57.468Z,11.60
2017-08-12T02:14:24.995Z,11.60
2017-08-12T02:16:52.573Z,11.70
2017-08-12T02:19:20.127Z,11.80
2017-08-12T02:21:47.702Z,11.90
2017-08-12T02:24:15.232Z,11.90
2017-08-12T02:26:42.787Z,12.00
2017-08-12T02:29:11.136Z,12.10
2017-08-12T02:31:38.692Z,12.10
2017-08-12T02:34:06.265Z,12.10
2017-08-12T02:36:33.798Z,12.10
2017-08-12T02:39:01.391Z,12.10
2017-08-12T02:41:28.953Z,12.00
2017-08-12T02:43:56.516Z,12.00
2017-08-12T02:46:24.059Z,11.90
2017-08-12T02:48:51.614Z,11.90
2017-08-12T02:51:19.172Z,11.90
2017-08-12T02:53:46.736Z,11.80
2017-08-12T02:56:15.030Z,11.60
2017-08-12T02:58:42.608Z,11.60
2017-08-12T03:01:10.153Z,11.60
2017-08-12T03:03:37.708Z,11.70
2017-08-12T03:06:06.044Z,11.90
2017-08-12T03:08:33.583Z,11.90
2017-08-12T03:11:01.145Z,11.90
2017-08-12T03:13:28.700Z,12.00
2017-08-12T03:15:56.298Z,12.00
2017-08-12T03:18:23.820Z,12.00
2017-08-12T03:20:51.379Z,11.90
2017-08-12T03:23:18.911Z,11.80
2017-08-12T03:25:46.471Z,11.60
2017-08-12T03:28:14.026Z,11.50
2017-08-12T03:30:42.365Z,11.50
2017-08-12T03:33:09.919Z,11.60
2017-08-12T03:35:39.187Z,11.70
2017-08-12T03:38:08.103Z,11.80
2017-08-12T03:40:35.687Z,11.80
2017-08-12T03:43:04.374Z,11.80
2017-08-12T03:45:32.661Z,11.70
2017-08-12T03:48:00.221Z,11.70
2017-08-12T03:50:28.445Z,11.70
2017-08-12T03:52:56.035Z,11.60
2017-08-12T03:55:23.587Z,11.50
2017-08-12T03:57:51.149Z,11.40
2017-08-12T04:00:18.688Z,11.50
2017-08-12T04:02:46.265Z,11.60
2017-08-12T04:05:13.860Z,11.70
2017-08-12T04:07:44.153Z,11.90
2017-08-12T04:10:11.708Z,11.90
2017-08-12T04:12:39.244Z,11.90
2017-08-12T04:15:06.962Z,12.00
2017-08-12T04:17:36.496Z,12.00
2017-08-12T04:20:04.893Z,12.00
2017-08-12T04:22:32.524Z,11.90
2017-08-12T04:25:01.777Z,11.90
2017-08-12T04:27:31.348Z,11.80
2017-08-12T04:29:58.941Z,11.80
2017-08-12T04:32:27.255Z,12.00
2017-08-12T04:34:54.961Z,11.90
2017-08-12T04:37:22.488Z,12.10
2017-08-12T04:39:50.072Z,12.10
2017-08-12T04:42:17.609Z,12.10
2017-08-12T04:44:45.148Z,12.20
2017-08-12T04:47:13.471Z,12.20
2017-08-12T04:49:41.011Z,12.20
2017-08-12T04:52:09.345Z,12.30
2017-08-12T04:54:36.908Z,12.30
2017-08-12T04:57:04.544Z,12.30
2017-08-12T04:59:32.103Z,12.30
2017-08-12T05:02:00.620Z,12.30
2017-08-12T05:04:28.159Z,12.40
2017-08-12T05:06:55.726Z,12.40
2017-08-12T05:09:23.257Z,12.40
2017-08-12T05:11:50.829Z,12.40
2017-08-12T05:14:18.374Z,12.50
2017-08-12T05:16:45.947Z,12.50
2017-08-12T05:19:14.279Z,12.50
2017-08-12T05:21:41.852Z,12.50
2017-08-12T05:24:09.430Z,12.70
2017-08-12T05:26:39.637Z,13.20
2017-08-12T05:29:07.217Z,14.60
2017-08-12T05:31:35.494Z,17.80
2017-08-12T05:34:03.047Z,21.00
2017-08-12T05:36:30.590Z,23.00
2017-08-12T05:38:58.179Z,24.80
2017-08-12T05:41:25.793Z,26.00
2017-08-12T05:43:54.152Z,26.60
2017-08-12T05:46:21.705Z,26.60
2017-08-12T05:48:49.273Z,26.80
2017-08-12T05:51:16.807Z,28.20
2017-08-12T05:53:44.401Z,28.90
2017-08-12T05:56:11.954Z,28.30
2017-08-12T05:58:39.985Z,28.80
2017-08-12T06:01:07.656Z,29.60
2017-08-12T06:03:36.243Z,29.60
2017-08-12T06:06:03.829Z,30.00
2017-08-12T06:08:31.447Z,29.80
2017-08-12T06:10:59.019Z,30.90
2017-08-12T06:13:26.561Z,31.70
2017-08-12T06:15:55.994Z,31.90
2017-08-12T06:18:23.611Z,32.00
2017-08-12T06:20:51.361Z,32.20
2017-08-12T06:23:18.908Z,32.30
2017-08-12T06:25:46.492Z,30.80
2017-08-12T06:28:14.028Z,31.20
2017-08-12T06:30:42.376Z,26.50
2017-08-12T06:33:09.927Z,26.40
2017-08-12T06:35:37.496Z,24.00
2017-08-12T06:38:05.056Z,22.40
2017-08-12T06:40:32.620Z,21.00
2017-08-12T06:43:00.213Z,20.20
2017-08-12T06:45:27.765Z,19.60
2017-08-12T06:47:55.328Z,19.10
2017-08-12T06:50:22.885Z,18.60
2017-08-12T06:52:50.450Z,18.40
2017-08-12T06:55:18.016Z,18.20
2017-08-12T06:57:45.590Z,18.20
2017-08-12T07:00:13.143Z,18.00
2017-08-12T07:02:40.698Z,17.90
2017-08-12T07:05:08.263Z,17.90
2017-08-12T07:07:35.860Z,18.10
2017-08-12T07:10:03.450Z,18.50
2017-08-12T07:12:31.038Z,18.50
2017-08-12T07:14:58.603Z,18.60
2017-08-12T07:17:26.181Z,18.50
2017-08-12T07:19:53.746Z,19.10
2017-08-12T07:22:21.280Z,19.20
2017-08-12T07:24:49.658Z,18.90
2017-08-12T07:27:18.000Z,18.90
2017-08-12T07:29:45.622Z,18.90
2017-08-12T07:32:13.931Z,19.30
2017-08-12T07:34:41.517Z,19.20
2017-08-12T07:37:09.048Z,19.50
2017-08-12T07:39:36.621Z,19.90
2017-08-12T07:42:04.190Z,20.30
2017-08-12T07:44:31.795Z,21.10
2017-08-12T07:46:59.357Z,20.80
2017-08-12T07:49:26.907Z,20.90
2017-08-12T07:51:54.479Z,21.00
2017-08-12T07:54:22.041Z,20.10
2017-08-12T07:56:49.603Z,20.70
2017-08-12T07:59:17.922Z,21.20
2017-08-12T08:01:46.170Z,21.20
2017-08-12T08:04:13.743Z,21.50
2017-08-12T08:06:41.354Z,22.10
2017-08-12T08:09:08.908Z,22.60
2017-08-12T08:11:37.252Z,23.20
2017-08-12T08:14:04.774Z,23.10
2017-08-12T08:16:32.409Z,23.60
2017-08-12T08:19:01.726Z,24.00
2017-08-12T08:21:30.066Z,24.00
2017-08-12T08:23:57.646Z,23.50
2017-08-12T08:26:25.177Z,22.80
2017-08-12T08:28:53.653Z,23.00
2017-08-12T08:31:24.192Z,22.60
2017-08-12T08:33:51.747Z,22.40
2017-08-12T08:36:19.300Z,22.00
2017-08-12T08:38:48.370Z,22.00
2017-08-12T08:41:16.105Z,22.00
2017-08-12T08:43:43.659Z,21.70
2017-08-12T08:46:12.530Z,21.60
2017-08-12T08:48:40.176Z,21.40
2017-08-12T08:51:08.516Z,21.50
2017-08-12T08:53:36.099Z,21.50
2017-08-12T08:56:04.456Z,21.40
2017-08-12T08:58:31.976Z,21.40
2017-08-12T09:01:00.957Z,21.60
2017-08-12T09:03:28.508Z,21.50
2017-08-12T09:05:56.081Z,21.50
2017-08-12T09:08:23.633Z,21.20
2017-08-12T09:10:52.457Z,21.00
2017-08-12T09:13:22.800Z,21.50
2017-08-12T09:15:51.332Z,22.00
2017-08-12T09:18:18.887Z,22.20
2017-08-12T09:20:46.457Z,22.10
2017-08-12T09:23:14.028Z,22.30
2017-08-12T09:25:41.753Z,21.90
2017-08-12T09:28:09.301Z,21.50
2017-08-12T09:30:37.628Z,21.20
2017-08-12T09:33:08.980Z,21.20
2017-08-12T09:35:37.682Z,21.10
2017-08-12T09:38:05.251Z,21.00
2017-08-12T09:40:32.791Z,21.00
2017-08-12T09:43:00.359Z,20.80
2017-08-12T09:45:27.940Z,20.70
2017-08-12T09:47:55.595Z,20.50
2017-08-12T09:50:24.957Z,20.50
2017-08-12T09:52:53.313Z,20.20
2017-08-12T09:55:21.376Z,20.20
2017-08-12T09:57:52.969Z,19.90
2017-08-12T10:00:22.561Z,19.70
2017-08-12T10:02:50.834Z,19.80
2017-08-12T10:05:18.367Z,20.20
2017-08-12T10:07:45.902Z,20.50
2017-08-12T10:10:14.218Z,21.30
2017-08-12T10:12:41.772Z,21.30
2017-08-12T10:15:09.346Z,21.30
2017-08-12T10:17:36.905Z,21.10
2017-08-12T10:20:04.496Z,20.90
2017-08-12T10:22:32.943Z,20.60
2017-08-12T10:25:00.490Z,20.20
2017-08-12T10:27:28.020Z,20.20
2017-08-12T10:29:55.566Z,20.60
2017-08-12T10:32:23.141Z,21.20
2017-08-12T10:34:50.683Z,21.50
2017-08-12T10:37:18.834Z,21.90
2017-08-12T10:39:46.378Z,21.70
2017-08-12T10:42:13.917Z,21.50
2017-08-12T10:44:42.280Z,21.10
2017-08-12T10:47:09.829Z,20.80
2017-08-12T10:49:37.362Z,20.70
2017-08-12T10:52:04.889Z,20.60
2017-08-12T10:54:32.435Z,20.60
2017-08-12T10:56:59.940Z,20.70
2017-08-12T10:59:27.475Z,21.20
2017-08-12T11:01:54.984Z,21.80
2017-08-12T11:04:22.516Z,22.10
2017-08-12T11:06:50.025Z,22.40
2017-08-12T11:09:17.566Z,22.80
2017-08-12T11:11:45.083Z,22.70
2017-08-12T11:14:12.603Z,22.70
2017-08-12T11:16:40.234Z,22.80
2017-08-12T11:19:08.521Z,23.00
2017-08-12T11:21:36.080Z,22.90
2017-08-12T11:24:03.597Z,23.20
2017-08-12T11:26:31.132Z,23.20
2017-08-12T11:28:58.681Z,22.80
2017-08-12T11:31:26.244Z,23.10
2017-08-12T11:33:53.811Z,23.20
2017-08-12T11:36:21.354Z,23.10
2017-08-12T11:38:48.901Z,23.20
2017-08-12T11:41:16.423Z,23.30
2017-08-12T11:43:44.019Z,23.30
2017-08-12T11:46:11.623Z,23.20
2017-08-12T11:48:39.168Z,22.80
2017-08-12T11:51:06.722Z,23.10
2017-08-12T11:53:34.357Z,23.20
2017-08-12T11:56:01.952Z,23.20
2017-08-12T11:58:29.494Z,22.80
2017-08-12T12:03:24.666Z,22.20
2017-08-12T12:05:52.965Z,21.50
2017-08-12T12:08:20.581Z,21.50
2017-08-12T12:10:48.111Z,21.50
2017-08-12T12:13:15.730Z,21.40
2017-08-12T12:15:44.047Z,21.50
2017-08-12T12:18:11.572Z,21.50
2017-08-12T12:20:39.346Z,21.80
2017-08-12T12:23:06.872Z,22.00
2017-08-12T12:25:34.392Z,22.00
2017-08-12T12:28:01.927Z,22.10
2017-08-12T12:30:29.453Z,21.60
2017-08-12T12:32:57.757Z,20.20
2017-08-12T12:35:25.273Z,20.20
2017-08-12T12:37:52.853Z,19.80
2017-08-12T12:40:20.372Z,19.50
2017-08-12T12:42:47.885Z,19.10
2017-08-12T12:45:15.417Z,18.80
2017-08-12T12:47:42.931Z,18.50
2017-08-12T12:50:10.461Z,18.40
2017-08-12T12:52:37.982Z,18.00
2017-08-12T12:55:05.509Z,17.70
2017-08-12T12:57:33.025Z,17.30
2017-08-12T13:00:00.561Z,16.90
2017-08-12T13:02:28.068Z,16.60
2017-08-12T13:04:55.809Z,16.60
2017-08-12T13:07:23.340Z,16.80
2017-08-12T13:09:50.858Z,17.20
2017-08-12T13:12:18.397Z,17.60
2017-08-12T13:14:45.927Z,18.00
2017-08-12T13:17:13.462Z,18.70
2017-08-12T13:19:40.969Z,19.50
2017-08-12T13:22:08.501Z,20.10
2017-08-12T13:24:36.009Z,20.20
2017-08-12T13:27:03.744Z,20.20
2017-08-12T13:29:31.284Z,20.60
2017-08-12T13:31:58.800Z,20.90
2017-08-12T13:34:26.336Z,21.30
2017-08-12T13:36:53.844Z,21.20
2017-08-12T13:39:21.378Z,20.90
2017-08-12T13:41:48.896Z,20.90
2017-08-12T13:44:16.436Z,21.70
2017-08-12T13:46:43.954Z,21.90
2017-08-12T13:49:11.517Z,22.00
2017-08-12T13:51:39.028Z,22.50
2017-08-12T13:54:07.296Z,22.00
2017-08-12T13:56:35.589Z,21.60
2017-08-12T13:59:03.096Z,21.60
2017-08-12T14:01:30.636Z,21.20
2017-08-12T14:03:58.152Z,20.80
2017-08-12T14:06:26.448Z,20.20
2017-08-12T14:08:53.962Z,20.20
2017-08-12T14:11:21.510Z,20.10
2017-08-12T14:13:49.025Z,20.20
2017-08-12T14:16:16.542Z,20.30
2017-08-12T14:18:44.072Z,20.20
2017-08-12T14:21:11.590Z,20.30
2017-08-12T14:23:39.125Z,20.30
2017-08-12T14:26:07.412Z,20.30
2017-08-12T14:28:34.952Z,20.20
2017-08-12T14:31:02.468Z,20.40
2017-08-12T14:33:30.013Z,20.70
2017-08-12T14:35:57.531Z,20.90
2017-08-12T14:38:25.044Z,21.20
2017-08-12T14:40:52.585Z,21.60
2017-08-12T14:43:20.100Z,21.90
2017-08-12T14:45:47.637Z,22.10
2017-08-12T14:48:15.161Z,22.10
2017-08-12T14:50:42.690Z,22.00
2017-08-12T14:53:10.965Z,22.00
2017-08-12T14:55:39.265Z,21.90
2017-08-12T14:58:06.776Z,21.90
2017-08-12T15:00:34.316Z,21.80
2017-08-12T15:03:01.840Z,21.80
2017-08-12T15:05:29.354Z,21.80
2017-08-12T15:07:56.892Z,21.90
2017-08-12T15:10:24.417Z,21.80
2017-08-12T15:12:51.959Z,21.90
2017-08-12T15:15:19.492Z,21.70
2017-08-12T15:17:47.037Z,21.50
2017-08-12T15:20:14.560Z,21.10
2017-08-12T15:22:42.069Z,20.90
2017-08-12T15:25:09.592Z,20.70
2017-08-12T15:27:37.101Z,20.60
2017-08-12T15:32:32.168Z,20.50
2017-08-12T15:34:59.706Z,20.60
2017-08-12T15:37:27.261Z,20.60
2017-08-12T15:39:54.845Z,20.70
2017-08-12T15:42:22.380Z,20.80
2017-08-12T15:44:49.909Z,20.80
2017-08-12T15:47:17.415Z,20.90
2017-08-12T15:49:44.960Z,20.90
2017-08-12T15:52:12.507Z,20.70
2017-08-12T15:54:40.806Z,20.60
2017-08-12T15:57:08.322Z,20.50
2017-08-12T15:59:36.626Z,20.20
2017-08-12T16:02:04.138Z,20.10
2017-08-12T16:04:31.682Z,20.00
2017-08-12T16:06:59.190Z,19.90
2017-08-12T16:09:27.493Z,19.90
2017-08-12T16:11:55.033Z,19.80
2017-08-12T16:14:22.577Z,19.80
2017-08-12T16:16:50.107Z,19.50
2017-08-12T16:19:17.646Z,19.40
2017-08-12T16:21:45.167Z,19.40
2017-08-12T16:24:12.684Z,19.40
2017-08-12T16:26:40.228Z,19.50
2017-08-12T16:29:07.736Z,19.50
2017-08-12T16:31:36.153Z,19.50
2017-08-12T16:34:03.688Z,19.50
2017-08-12T16:36:31.227Z,19.50
2017-08-12T16:38:59.525Z,19.40
2017-08-12T16:41:27.056Z,19.40
2017-08-12T16:43:55.337Z,19.30
2017-08-12T16:46:22.868Z,19.30
2017-08-12T16:48:50.378Z,19.30
2017-08-12T16:51:17.910Z,19.30
2017-08-12T16:53:46.189Z,19.10
2017-08-12T16:56:14.487Z,19.00
2017-08-12T16:58:42.001Z,19.00
2017-08-12T17:01:09.503Z,18.90
2017-08-12T17:03:37.030Z,18.80
2017-08-12T17:06:04.544Z,18.90
2017-08-12T17:08:32.082Z,18.90
2017-08-12T17:10:59.606Z,18.80
2017-08-12T17:13:27.157Z,18.80
2017-08-12T17:15:54.678Z,18.70
2017-08-12T17:18:22.208Z,18.70
2017-08-12T17:20:49.718Z,18.70
2017-08-12T17:23:17.254Z,18.60
2017-08-12T17:25:44.765Z,18.50
2017-08-12T17:28:12.369Z,18.60
2017-08-12T17:30:39.888Z,18.50
2017-08-12T17:33:07.433Z,18.50
2017-08-12T17:35:34.972Z,18.40
2017-08-12T17:38:02.498Z,18.30
2017-08-12T17:40:30.036Z,18.30
2017-08-12T17:42:57.544Z,18.20
2017-08-12T17:45:25.100Z,18.20
2017-08-12T17:47:52.665Z,18.10
2017-08-12T17:50:20.235Z,18.10
2017-08-12T17:52:47.749Z,18.00
2017-08-12T17:55:15.291Z,17.80
2017-08-12T17:57:42.807Z,17.70
2017-08-12T18:00:10.337Z,17.50
2017-08-12T18:02:37.880Z,17.40
2017-08-12T18:05:05.438Z,17.30
2017-08-12T18:07:32.953Z,17.20
2017-08-12T18:10:00.471Z,17.00
2017-08-12T18:12:28.013Z,16.90
2017-08-12T18:14:55.549Z,16.70
2017-08-12T18:17:23.841Z,16.60
2017-08-12T18:19:51.444Z,16.50
2017-08-12T18:22:19.005Z,16.40
2017-08-12T18:24:47.352Z,16.30
2017-08-12T18:27:14.892Z,16.30
2017-08-12T18:29:42.409Z,16.20
2017-08-12T18:32:09.946Z,16.10
2017-08-12T18:34:37.461Z,16.00
2017-08-12T18:37:05.015Z,16.00
2017-08-12T18:39:33.313Z,15.90
2017-08-12T18:42:00.852Z,15.80
2017-08-12T18:44:29.125Z,15.80
2017-08-12T18:46:57.457Z,15.80
2017-08-12T18:49:24.985Z,15.80
2017-08-12T18:51:52.564Z,15.80
2017-08-12T18:54:20.133Z,15.80
2017-08-12T18:56:47.641Z,15.80
2017-08-12T18:59:15.198Z,15.80
2017-08-12T19:01:43.469Z,15.60
2017-08-12T19:04:11.776Z,15.50
2017-08-12T19:06:39.317Z,15.50
2017-08-12T19:09:06.852Z,15.40
2017-08-12T19:11:34.373Z,15.40
2017-08-12T19:14:01.907Z,15.40
2017-08-12T19:16:29.420Z,15.40
2017-08-12T19:18:57.030Z,15.30
2017-08-12T19:21:24.543Z,15.30
2017-08-12T19:23:52.072Z,15.40
2017-08-12T19:26:19.593Z,15.30
2017-08-12T19:28:47.128Z,15.30
2017-08-12T19:31:15.400Z,15.30
2017-08-12T19:33:43.715Z,15.30
2017-08-12T19:36:11.228Z,15.30
2017-08-12T19:38:38.760Z,15.30
2017-08-12T19:41:06.316Z,15.30
2017-08-12T19:43:33.878Z,15.30
2017-08-12T19:46:01.463Z,15.30
2017-08-12T19:48:29.011Z,15.20
2017-08-12T19:50:56.543Z,15.20
2017-08-12T19:53:24.057Z,15.20
2017-08-12T19:55:52.356Z,15.00
2017-08-12T19:58:19.886Z,15.00
2017-08-12T20:00:48.185Z,14.80
2017-08-12T20:03:15.700Z,14.80
2017-08-12T20:05:43.244Z,14.70
2017-08-12T20:08:10.805Z,14.70
2017-08-12T20:10:38.345Z,14.60
2017-08-12T20:13:05.902Z,14.50
2017-08-12T20:15:33.451Z,14.50
2017-08-12T20:18:00.989Z,14.40
2017-08-12T20:20:28.543Z,14.40
2017-08-12T20:22:56.064Z,14.40
2017-08-12T20:25:23.582Z,14.50
2017-08-12T20:27:51.118Z,14.40
2017-08-12T20:30:18.632Z,14.40
2017-08-12T20:32:46.231Z,14.30
2017-08-12T20:35:14.557Z,14.30
2017-08-12T20:37:42.144Z,14.20
2017-08-12T20:40:10.296Z,14.20
2017-08-12T20:42:37.878Z,14.10
2017-08-12T20:45:05.406Z,14.00
2017-08-12T20:47:32.944Z,14.00
2017-08-12T20:50:00.468Z,14.00
2017-08-12T20:52:28.780Z,13.90
2017-08-12T20:54:56.292Z,13.90
2017-08-12T20:57:23.867Z,13.80
2017-08-12T20:59:52.142Z,13.70
2017-08-12T21:02:20.427Z,13.60
2017-08-12T21:04:48.001Z,13.60
2017-08-12T21:07:15.516Z,13.60
2017-08-12T21:09:43.157Z,13.50
2017-08-12T21:12:10.721Z,13.40
2017-08-12T21:14:38.262Z,13.30
2017-08-12T21:17:05.824Z,13.30
2017-08-12T21:19:33.356Z,13.30
2017-08-12T21:22:00.869Z,13.20
2017-08-12T21:24:28.448Z,13.20
2017-08-12T21:26:55.989Z,13.20
2017-08-12T21:29:23.552Z,13.30
2017-08-12T21:31:51.152Z,13.50
2017-08-12T21:34:18.731Z,13.70
2017-08-12T21:36:46.248Z,13.80
2017-08-12T21:39:14.532Z,13.90
2017-08-12T21:41:42.859Z,13.90
2017-08-12T21:44:10.381Z,13.90
2017-08-12T21:46:37.935Z,14.00
2017-08-12T21:49:05.464Z,14.00
2017-08-12T21:51:33.003Z,14.00
2017-08-12T21:54:00.551Z,14.00
2017-08-12T21:56:28.096Z,14.00
2017-08-12T21:58:55.658Z,14.00
2017-08-12T22:01:23.230Z,14.10
2017-08-12T22:03:50.749Z,14.10
2017-08-12T22:06:18.291Z,14.20
2017-08-12T22:08:46.570Z,14.10
2017-08-12T22:11:14.877Z,13.90
2017-08-12T22:13:42.396Z,14.00
2017-08-12T22:16:09.912Z,13.90
2017-08-12T22:18:38.009Z,13.80
2017-08-12T22:21:05.529Z,13.70
2017-08-12T22:23:33.068Z,13.60
2017-08-12T22:26:00.600Z,13.60
2017-08-12T22:28:28.909Z,13.70
2017-08-12T22:30:56.425Z,13.60
2017-08-12T22:33:23.949Z,13.70
2017-08-12T22:35:51.476Z,13.80
2017-08-12T22:38:19.029Z,13.90
2017-08-12T22:40:47.313Z,14.10
2017-08-12T22:43:14.854Z,14.20
2017-08-12T22:45:43.145Z,14.30
2017-08-12T22:48:10.685Z,14.30
2017-08-12T22:50:38.972Z,14.50
2017-08-12T22:53:07.271Z,14.60
2017-08-12T22:55:34.788Z,14.60
2017-08-12T22:58:02.308Z,14.70
2017-08-12T23:00:29.840Z,14.80
2017-08-12T23:02:57.357Z,14.90
2017-08-12T23:05:24.902Z,14.90
2017-08-12T23:07:52.434Z,15.00
2017-08-12T23:10:19.970Z,15.00
2017-08-12T23:12:47.505Z,15.00
2017-08-12T23:15:15.035Z,15.00
2017-08-12T23:17:42.544Z,15.00
2017-08-12T23:20:10.089Z,15.00
2017-08-12T23:22:37.597Z,15.00
2017-08-12T23:25:05.141Z,15.00
2017-08-12T23:27:32.657Z,15.00
2017-08-12T23:30:00.198Z,15.00
2017-08-12T23:32:27.704Z,15.00
2017-08-12T23:34:55.218Z,15.00
2017-08-12T23:37:22.756Z,15.10
2017-08-12T23:39:50.278Z,15.10
2017-08-12T23:42:17.805Z,15.10
2017-08-12T23:44:45.311Z,15.10
2017-08-12T23:47:12.862Z,15.10
2017-08-12T23:49:40.385Z,15.10
2017-08-12T23:52:08.688Z,15.10
2017-08-12T23:54:36.216Z,15.10
2017-08-12T23:57:03.748Z,15.10
2017-08-12T23:59:31.270Z,15.10
